createdAt,value
2022-09-15T02:00:50.423Z,94.75
2022-09-15T02:01:11.038Z,94.65
2022-09-15T02:01:31.776Z,94.55
2022-09-15T02:01:52.377Z,94.65
2022-09-15T02:02:13.006Z,94.65
2022-09-15T02:02:33.625Z,94.55
2022-09-15T02:02:54.176Z,94.55
2022-09-15T02:03:14.756Z,94.34
2022-09-15T02:03:35.341Z,94.34
2022-09-15T02:03:55.926Z,94.55
2022-09-15T02:04:16.318Z,94.65
2022-09-15T02:04:36.902Z,94.65
2022-09-15T02:04:57.492Z,94.65
2022-09-15T02:05:18.089Z,94.65
2022-09-15T02:05:38.676Z,94.55
2022-09-15T02:05:59.259Z,94.65
2022-09-15T02:06:19.844Z,94.75
2022-09-15T02:06:40.424Z,94.85
2022-09-15T02:07:01.013Z,94.85
2022-09-15T02:07:21.590Z,94.95
2022-09-15T02:07:42.173Z,94.95
2022-09-15T02:08:02.573Z,94.85
2022-09-15T02:08:23.156Z,94.65
2022-09-15T02:08:43.734Z,94.75
2022-09-15T02:09:04.321Z,94.95
2022-09-15T02:09:24.907Z,95.06
2022-09-15T02:09:45.490Z,95.06
2022-09-15T02:10:06.071Z,95.06
2022-09-15T02:10:26.671Z,95.06
2022-09-15T02:10:47.255Z,95.16
2022-09-15T02:11:07.846Z,94.75
2022-09-15T02:11:28.429Z,94.75
2022-09-15T02:11:49.009Z,94.95
2022-09-15T02:12:09.586Z,95.06
2022-09-15T02:12:30.172Z,95.16
2022-09-15T02:12:50.762Z,95.26
2022-09-15T02:13:11.334Z,95.36
2022-09-15T02:13:31.915Z,95.57
2022-09-15T02:13:52.560Z,95.57
2022-09-15T02:14:13.146Z,95.57
2022-09-15T02:14:33.734Z,95.47
2022-09-15T02:14:54.314Z,95.51
2022-09-15T02:15:14.904Z,95.51
2022-09-15T02:15:35.489Z,95.51
2022-09-15T02:15:55.904Z,95.36
2022-09-15T02:16:16.533Z,95.41
2022-09-15T02:16:37.203Z,95.31
2022-09-15T02:16:57.792Z,95.26
2022-09-15T02:17:18.372Z,95.26
2022-09-15T02:17:38.950Z,95.41
2022-09-15T02:17:59.531Z,95.41
2022-09-15T02:18:20.113Z,95.41
2022-09-15T02:18:40.693Z,95.41
2022-09-15T02:19:01.089Z,95.41
2022-09-15T02:19:21.672Z,95.41
2022-09-15T02:19:42.259Z,95.31
2022-09-15T02:20:02.843Z,95.31
2022-09-15T02:20:23.427Z,95.31
2022-09-15T02:20:44.023Z,95.31
2022-09-15T02:21:04.610Z,95.20
2022-09-15T02:21:25.002Z,95.20
2022-09-15T02:21:45.581Z,95.20
2022-09-15T02:22:06.168Z,95.20
2022-09-15T02:22:26.753Z,95.20
2022-09-15T02:22:47.346Z,95.10
2022-09-15T02:23:07.911Z,95.10
2022-09-15T02:23:28.496Z,95.00
2022-09-15T02:23:49.083Z,95.10
2022-09-15T02:24:09.478Z,95.00
2022-09-15T02:24:30.056Z,94.90
2022-09-15T02:24:50.640Z,94.90
2022-09-15T02:25:11.224Z,94.79
2022-09-15T02:25:31.803Z,94.90
2022-09-15T02:25:52.407Z,95.00
2022-09-15T02:26:12.989Z,95.00
2022-09-15T02:26:33.386Z,95.00
2022-09-15T02:26:53.970Z,94.90
2022-09-15T02:27:14.554Z,94.79
2022-09-15T02:27:35.136Z,94.70
2022-09-15T02:27:55.713Z,94.70
2022-09-15T02:28:16.302Z,94.70
2022-09-15T02:28:36.992Z,94.49
2022-09-15T02:28:57.590Z,94.70
2022-09-15T02:29:18.157Z,94.90
2022-09-15T02:29:38.736Z,95.00
2022-09-15T02:29:59.319Z,95.10
2022-09-15T02:30:19.903Z,95.20
2022-09-15T02:30:40.497Z,95.20
2022-09-15T02:31:00.915Z,95.10
2022-09-15T02:31:21.534Z,95.00
2022-09-15T02:31:42.205Z,95.00
2022-09-15T02:32:07.100Z,95.00
2022-09-15T02:32:22.920Z,95.00
2022-09-15T02:32:43.567Z,94.79
2022-09-15T02:33:04.168Z,94.79
2022-09-15T02:33:24.749Z,94.79
2022-09-15T02:33:45.331Z,94.70
2022-09-15T02:34:05.913Z,94.79
2022-09-15T02:34:26.489Z,94.90
2022-09-15T02:34:47.071Z,94.79
2022-09-15T02:35:07.650Z,94.70
2022-09-15T02:35:28.235Z,94.70
2022-09-15T02:35:48.642Z,94.70
2022-09-15T02:36:09.229Z,94.59
2022-09-15T02:36:29.820Z,94.59
2022-09-15T02:36:50.391Z,94.59
2022-09-15T02:37:10.789Z,94.59
2022-09-15T02:37:31.363Z,94.59
2022-09-15T02:37:51.949Z,94.59
2022-09-15T02:38:12.536Z,94.49
2022-09-15T02:38:33.116Z,94.38
2022-09-15T02:38:53.700Z,94.38
2022-09-15T02:39:14.283Z,94.49
2022-09-15T02:39:34.869Z,94.49
2022-09-15T02:39:55.594Z,94.59
2022-09-15T02:40:16.314Z,94.59
2022-09-15T02:40:36.904Z,94.59
2022-09-15T02:40:57.503Z,94.70
2022-09-15T02:41:18.088Z,94.59
2022-09-15T02:41:38.669Z,94.49
2022-09-15T02:41:59.255Z,94.49
2022-09-15T02:42:19.842Z,94.53
2022-09-15T02:42:40.425Z,94.53
2022-09-15T02:43:01.010Z,94.64
2022-09-15T02:43:21.403Z,94.64
2022-09-15T02:43:41.985Z,94.74
2022-09-15T02:44:02.563Z,94.74
2022-09-15T02:44:23.144Z,94.74
2022-09-15T02:44:43.729Z,94.64
2022-09-15T02:45:04.318Z,94.74
2022-09-15T02:45:24.997Z,94.74
2022-09-15T02:45:45.635Z,94.84
2022-09-15T02:46:06.326Z,94.84
2022-09-15T02:46:26.919Z,94.84
2022-09-15T02:46:47.313Z,94.94
2022-09-15T02:47:07.904Z,94.94
2022-09-15T02:47:28.485Z,94.94
2022-09-15T02:47:49.066Z,94.94
2022-09-15T02:48:09.656Z,95.04
2022-09-15T02:48:30.234Z,95.04
2022-09-15T02:48:50.812Z,94.94
2022-09-15T02:49:11.390Z,94.84
2022-09-15T02:49:31.976Z,94.84
2022-09-15T02:49:52.559Z,94.84
2022-09-15T02:50:12.954Z,94.84
2022-09-15T02:50:33.537Z,94.94
2022-09-15T02:50:54.132Z,94.94
2022-09-15T02:51:14.716Z,94.94
2022-09-15T02:51:35.303Z,95.04
2022-09-15T02:51:55.884Z,95.04
2022-09-15T02:52:16.471Z,95.15
2022-09-15T02:52:37.051Z,95.25
2022-09-15T02:52:57.653Z,95.25
2022-09-15T02:53:18.282Z,95.35
2022-09-15T02:53:38.867Z,95.45
2022-09-15T02:53:59.445Z,95.56
2022-09-15T02:54:20.028Z,95.65
2022-09-15T02:54:40.608Z,95.76
2022-09-15T02:55:01.195Z,95.76
2022-09-15T02:55:21.769Z,95.76
2022-09-15T02:55:42.356Z,95.76
2022-09-15T02:56:02.949Z,95.65
2022-09-15T02:56:23.538Z,95.56
2022-09-15T02:56:44.118Z,95.56
2022-09-15T02:57:04.521Z,95.65
2022-09-15T02:57:25.101Z,95.76
2022-09-15T02:57:45.679Z,95.86
2022-09-15T02:58:06.273Z,95.76
2022-09-15T02:58:26.859Z,95.65
2022-09-15T02:58:47.440Z,95.56
2022-09-15T02:59:08.024Z,95.65
2022-09-15T02:59:28.605Z,95.65
2022-09-15T02:59:49.188Z,95.76
2022-09-15T03:00:09.593Z,95.86
2022-09-15T03:00:30.176Z,95.96
2022-09-15T03:00:50.833Z,95.96
2022-09-15T03:01:11.529Z,95.96
2022-09-15T03:01:32.081Z,95.96
2022-09-15T03:01:52.713Z,95.96
2022-09-15T03:02:13.328Z,95.96
2022-09-15T03:02:33.657Z,96.06
2022-09-15T03:02:54.242Z,95.86
2022-09-15T03:03:14.820Z,95.86
2022-09-15T03:03:37.100Z,95.96
2022-09-15T03:04:00.433Z,96.06
2022-09-15T03:04:20.991Z,96.17
2022-09-15T03:04:41.574Z,96.17
2022-09-15T03:05:02.152Z,96.06
2022-09-15T03:05:22.544Z,96.06
2022-09-15T03:05:43.148Z,95.96
2022-09-15T03:06:03.731Z,95.96
2022-09-15T03:06:24.127Z,95.96
2022-09-15T03:06:44.721Z,95.96
2022-09-15T03:07:05.303Z,95.96
2022-09-15T03:07:25.885Z,95.96
2022-09-15T03:07:46.466Z,95.96
2022-09-15T03:08:07.047Z,95.96
2022-09-15T03:08:27.620Z,96.06
2022-09-15T03:08:48.204Z,96.06
2022-09-15T03:09:08.787Z,96.06
2022-09-15T03:09:29.367Z,96.06
2022-09-15T03:09:49.949Z,95.96
2022-09-15T03:10:10.530Z,95.96
2022-09-15T03:10:31.113Z,95.86
2022-09-15T03:10:51.536Z,95.80
2022-09-15T03:11:12.140Z,95.76
2022-09-15T03:11:32.723Z,95.76
2022-09-15T03:11:53.305Z,95.80
2022-09-15T03:12:13.885Z,95.80
2022-09-15T03:12:34.470Z,95.80
2022-09-15T03:12:55.075Z,95.80
2022-09-15T03:13:15.656Z,95.90
2022-09-15T03:13:36.235Z,96.01
2022-09-15T03:13:56.823Z,96.01
2022-09-15T03:14:17.405Z,96.01
2022-09-15T03:14:37.983Z,95.96
2022-09-15T03:14:58.568Z,96.01
2022-09-15T03:15:18.963Z,95.86
2022-09-15T03:15:39.557Z,96.01
2022-09-15T03:16:00.009Z,96.01
2022-09-15T03:16:20.667Z,96.01
2022-09-15T03:16:41.332Z,95.90
2022-09-15T03:17:01.935Z,95.70
2022-09-15T03:17:22.551Z,95.76
2022-09-15T03:17:43.101Z,95.96
2022-09-15T03:18:03.683Z,96.01
2022-09-15T03:18:24.263Z,95.86
2022-09-15T03:18:44.846Z,96.01
2022-09-15T03:19:05.431Z,95.96
2022-09-15T03:19:26.016Z,96.11
2022-09-15T03:19:46.599Z,96.01
2022-09-15T03:20:07.181Z,95.90
2022-09-15T03:20:27.778Z,95.90
2022-09-15T03:20:48.369Z,95.90
2022-09-15T03:21:08.950Z,95.80
2022-09-15T03:21:29.546Z,95.80
2022-09-15T03:21:50.113Z,95.90
2022-09-15T03:22:10.698Z,95.90
2022-09-15T03:22:31.276Z,95.90
2022-09-15T03:22:51.862Z,95.90
2022-09-15T03:23:12.443Z,95.80
2022-09-15T03:23:33.027Z,95.80
2022-09-15T03:23:53.611Z,95.80
2022-09-15T03:24:14.189Z,95.90
2022-09-15T03:24:34.774Z,95.90
2022-09-15T03:24:55.359Z,96.01
2022-09-15T03:25:15.939Z,96.11
2022-09-15T03:25:36.538Z,96.11
2022-09-15T03:25:57.113Z,95.90
2022-09-15T03:26:17.702Z,95.80
2022-09-15T03:26:38.279Z,95.90
2022-09-15T03:26:58.867Z,95.80
2022-09-15T03:27:19.266Z,95.80
2022-09-15T03:27:39.845Z,95.80
2022-09-15T03:28:00.431Z,95.80
2022-09-15T03:28:21.014Z,95.90
2022-09-15T03:28:41.597Z,95.90
2022-09-15T03:29:02.180Z,96.01
2022-09-15T03:29:22.762Z,96.01
2022-09-15T03:29:43.342Z,96.01
2022-09-15T03:30:03.930Z,96.01
2022-09-15T03:30:24.508Z,95.90
2022-09-15T03:30:45.104Z,95.80
2022-09-15T03:31:05.795Z,95.80
2022-09-15T03:31:26.520Z,95.60
2022-09-15T03:31:47.148Z,95.60
2022-09-15T03:32:07.709Z,95.50
2022-09-15T03:32:28.291Z,95.50
2022-09-15T03:32:48.873Z,95.60
2022-09-15T03:33:09.453Z,95.60
2022-09-15T03:33:29.849Z,95.60
2022-09-15T03:33:50.426Z,95.50
2022-09-15T03:34:10.824Z,95.39
2022-09-15T03:34:31.410Z,95.50
2022-09-15T03:34:56.403Z,95.39
2022-09-15T03:35:12.388Z,95.39
2022-09-15T03:35:32.984Z,95.39
2022-09-15T03:35:53.566Z,95.19
2022-09-15T03:36:14.151Z,95.29
2022-09-15T03:36:34.730Z,95.29
2022-09-15T03:36:55.317Z,95.39
2022-09-15T03:37:15.895Z,95.50
2022-09-15T03:37:36.495Z,95.60
2022-09-15T03:37:57.060Z,95.70
2022-09-15T03:38:17.644Z,95.70
2022-09-15T03:38:38.230Z,95.70
2022-09-15T03:38:58.811Z,95.70
2022-09-15T03:39:19.392Z,95.60
2022-09-15T03:39:39.978Z,95.60
2022-09-15T03:40:00.618Z,95.70
2022-09-15T03:40:21.254Z,95.70
2022-09-15T03:40:41.829Z,95.80
2022-09-15T03:41:02.224Z,95.80
2022-09-15T03:41:22.804Z,95.70
2022-09-15T03:41:43.381Z,95.80
2022-09-15T03:42:03.965Z,95.80
2022-09-15T03:42:24.547Z,95.80
2022-09-15T03:42:45.126Z,95.60
2022-09-15T03:43:05.715Z,95.70
2022-09-15T03:43:26.298Z,95.80
2022-09-15T03:43:46.879Z,95.80
2022-09-15T03:44:07.273Z,95.80
2022-09-15T03:44:27.857Z,95.80
2022-09-15T03:44:48.439Z,95.80
2022-09-15T03:45:09.023Z,95.80
2022-09-15T03:45:29.659Z,95.80
2022-09-15T03:45:50.251Z,95.80
2022-09-15T03:46:10.866Z,95.70
2022-09-15T03:46:31.435Z,95.70
2022-09-15T03:46:51.997Z,95.70
2022-09-15T03:47:12.582Z,95.70
2022-09-15T03:47:33.172Z,95.70
2022-09-15T03:47:53.759Z,95.60
2022-09-15T03:48:14.343Z,95.60
2022-09-15T03:48:34.924Z,95.70
2022-09-15T03:48:55.503Z,95.70
2022-09-15T03:49:16.114Z,95.60
2022-09-15T03:49:36.699Z,95.50
2022-09-15T03:49:57.092Z,95.50
2022-09-15T03:50:17.492Z,95.50
2022-09-15T03:50:38.091Z,95.50
2022-09-15T03:50:58.672Z,95.50
2022-09-15T03:51:19.260Z,95.50
2022-09-15T03:51:39.834Z,95.50
2022-09-15T03:52:00.420Z,95.60
2022-09-15T03:52:21.001Z,95.60
2022-09-15T03:52:41.584Z,95.60
2022-09-15T03:53:01.985Z,95.60
2022-09-15T03:53:22.382Z,95.60
2022-09-15T03:53:42.992Z,95.50
2022-09-15T03:54:03.543Z,95.39
2022-09-15T03:54:24.124Z,95.44
2022-09-15T03:54:44.712Z,95.39
2022-09-15T03:55:05.304Z,95.29
2022-09-15T03:55:25.881Z,95.34
2022-09-15T03:55:46.475Z,95.44
2022-09-15T03:56:07.054Z,95.54
2022-09-15T03:56:27.639Z,95.50
2022-09-15T03:56:48.220Z,95.39
2022-09-15T03:57:08.802Z,95.29
2022-09-15T03:57:29.380Z,95.34
2022-09-15T03:57:49.968Z,95.39
2022-09-15T03:58:10.550Z,95.44
2022-09-15T03:58:31.133Z,95.54
2022-09-15T03:58:51.534Z,95.54
2022-09-15T03:59:12.110Z,95.44
2022-09-15T03:59:32.700Z,95.44
2022-09-15T03:59:53.294Z,95.34
2022-09-15T04:00:13.872Z,95.23
2022-09-15T04:00:34.551Z,95.23
2022-09-15T04:00:55.244Z,95.23
2022-09-15T04:01:15.878Z,95.23
2022-09-15T04:01:36.548Z,95.23
2022-09-15T04:01:57.241Z,95.34
2022-09-15T04:02:17.907Z,95.23
2022-09-15T04:02:38.570Z,95.23
2022-09-15T04:02:59.145Z,95.34
2022-09-15T04:03:19.732Z,95.13
2022-09-15T04:03:45.169Z,95.03
2022-09-15T04:04:00.724Z,94.93
2022-09-15T04:04:21.116Z,95.03
2022-09-15T04:04:41.515Z,95.13
2022-09-15T04:05:02.098Z,95.23
2022-09-15T04:05:22.692Z,95.23
2022-09-15T04:05:43.276Z,95.23
2022-09-15T04:06:03.857Z,95.34
2022-09-15T04:06:24.439Z,95.34
2022-09-15T04:06:45.028Z,95.34
2022-09-15T04:07:05.615Z,95.23
2022-09-15T04:07:26.205Z,95.23
2022-09-15T04:07:46.786Z,95.23
2022-09-15T04:08:07.367Z,95.23
2022-09-15T04:08:27.952Z,95.13
2022-09-15T04:08:48.532Z,94.93
2022-09-15T04:09:09.140Z,94.93
2022-09-15T04:09:29.735Z,95.03
2022-09-15T04:09:50.322Z,94.93
2022-09-15T04:10:10.907Z,94.93
2022-09-15T04:10:31.504Z,94.93
2022-09-15T04:10:52.089Z,95.03
2022-09-15T04:11:12.671Z,95.13
2022-09-15T04:11:33.259Z,95.13
2022-09-15T04:11:53.850Z,95.13
2022-09-15T04:12:14.435Z,94.93
2022-09-15T04:12:35.018Z,94.93
2022-09-15T04:12:55.600Z,94.93
2022-09-15T04:13:16.012Z,95.03
2022-09-15T04:13:36.594Z,95.13
2022-09-15T04:13:57.192Z,95.23
2022-09-15T04:14:17.775Z,95.23
2022-09-15T04:14:38.358Z,95.23
2022-09-15T04:14:58.939Z,95.34
2022-09-15T04:15:19.535Z,95.34
2022-09-15T04:15:40.116Z,95.23
2022-09-15T04:16:00.756Z,95.34
2022-09-15T04:16:21.348Z,95.34
2022-09-15T04:16:42.020Z,95.34
2022-09-15T04:17:02.621Z,95.34
2022-09-15T04:17:23.204Z,95.44
2022-09-15T04:17:43.783Z,95.44
2022-09-15T04:18:04.176Z,95.44
2022-09-15T04:18:24.761Z,95.44
2022-09-15T04:18:45.344Z,95.34
2022-09-15T04:19:05.924Z,95.23
2022-09-15T04:19:26.511Z,95.23
2022-09-15T04:19:47.091Z,95.23
2022-09-15T04:20:07.672Z,95.23
2022-09-15T04:20:28.264Z,95.23
2022-09-15T04:20:48.662Z,95.23
2022-09-15T04:21:09.242Z,95.34
2022-09-15T04:21:29.823Z,95.34
2022-09-15T04:21:50.404Z,95.34
2022-09-15T04:22:15.547Z,95.23
2022-09-15T04:22:31.384Z,95.23
2022-09-15T04:22:51.970Z,95.13
2022-09-15T04:23:12.553Z,95.03
2022-09-15T04:23:33.131Z,95.03
2022-09-15T04:23:53.715Z,95.03
2022-09-15T04:24:14.301Z,95.18
2022-09-15T04:24:34.895Z,95.23
2022-09-15T04:24:55.475Z,95.23
2022-09-15T04:25:16.101Z,95.23
2022-09-15T04:25:36.491Z,95.28
2022-09-15T04:25:56.885Z,95.28
2022-09-15T04:26:17.466Z,95.38
2022-09-15T04:26:38.046Z,95.59
2022-09-15T04:26:58.626Z,95.69
2022-09-15T04:27:19.215Z,95.79
2022-09-15T04:27:39.798Z,95.79
2022-09-15T04:28:00.379Z,95.79
2022-09-15T04:28:20.965Z,95.89
2022-09-15T04:28:41.553Z,96.00
2022-09-15T04:29:04.570Z,96.10
2022-09-15T04:29:22.525Z,96.10
2022-09-15T04:29:43.104Z,96.10
2022-09-15T04:30:03.686Z,96.20
2022-09-15T04:30:24.282Z,96.30
2022-09-15T04:30:44.858Z,96.41
2022-09-15T04:31:05.496Z,96.30
2022-09-15T04:31:26.091Z,96.20
2022-09-15T04:31:46.855Z,96.20
2022-09-15T04:32:07.477Z,96.30
2022-09-15T04:32:28.062Z,96.41
2022-09-15T04:32:48.645Z,96.41
2022-09-15T04:33:09.229Z,96.51
2022-09-15T04:33:29.812Z,96.61
2022-09-15T04:33:50.391Z,96.71
2022-09-15T04:34:10.980Z,96.67
2022-09-15T04:34:31.374Z,96.71
2022-09-15T04:34:51.961Z,96.77
2022-09-15T04:35:12.559Z,96.97
2022-09-15T04:35:33.143Z,97.08
2022-09-15T04:35:53.725Z,97.08
2022-09-15T04:36:14.308Z,97.08
2022-09-15T04:36:34.888Z,97.08
2022-09-15T04:36:55.471Z,96.97
2022-09-15T04:37:16.051Z,96.87
2022-09-15T04:37:36.634Z,96.97
2022-09-15T04:37:57.220Z,96.97
2022-09-15T04:38:17.801Z,96.97
2022-09-15T04:38:38.382Z,96.97
2022-09-15T04:38:58.967Z,97.08
2022-09-15T04:39:19.549Z,96.97
2022-09-15T04:39:40.132Z,97.08
2022-09-15T04:40:00.790Z,97.08
2022-09-15T04:40:21.452Z,97.08
2022-09-15T04:40:42.025Z,97.08
2022-09-15T04:41:02.608Z,96.97
2022-09-15T04:41:23.189Z,96.77
2022-09-15T04:41:43.766Z,96.77
2022-09-15T04:42:04.353Z,96.97
2022-09-15T04:42:24.938Z,97.08
2022-09-15T04:42:45.514Z,97.08
2022-09-15T04:43:06.093Z,96.97
2022-09-15T04:43:26.492Z,96.97
2022-09-15T04:43:47.076Z,96.87
2022-09-15T04:44:07.657Z,97.08
2022-09-15T04:44:28.234Z,97.28
2022-09-15T04:44:48.821Z,97.38
2022-09-15T04:45:09.419Z,97.28
2022-09-15T04:45:30.002Z,97.28
2022-09-15T04:45:50.588Z,97.08
2022-09-15T04:46:11.228Z,96.87
2022-09-15T04:46:31.832Z,96.77
2022-09-15T04:46:52.492Z,96.87
2022-09-15T04:47:13.088Z,96.97
2022-09-15T04:47:33.671Z,97.28
2022-09-15T04:47:54.253Z,97.28
2022-09-15T04:48:14.835Z,96.77
2022-09-15T04:48:35.435Z,96.77
2022-09-15T04:48:55.998Z,96.77
2022-09-15T04:49:16.640Z,96.77
2022-09-15T04:49:36.984Z,96.87
2022-09-15T04:49:57.560Z,96.77
2022-09-15T04:50:18.160Z,96.77
2022-09-15T04:50:38.743Z,96.67
2022-09-15T04:50:59.323Z,96.77
2022-09-15T04:51:19.904Z,96.77
2022-09-15T04:51:40.491Z,97.08
2022-09-15T04:52:01.069Z,97.58
2022-09-15T04:52:21.652Z,97.69
2022-09-15T04:52:42.239Z,97.69
2022-09-15T04:53:02.819Z,97.58
2022-09-15T04:53:23.401Z,97.49
2022-09-15T04:53:43.988Z,97.49
2022-09-15T04:54:04.574Z,97.69
2022-09-15T04:54:25.154Z,97.69
2022-09-15T04:54:45.549Z,97.58
2022-09-15T04:55:06.131Z,97.58
2022-09-15T04:55:26.727Z,97.49
2022-09-15T04:55:47.304Z,97.38
2022-09-15T04:56:07.885Z,97.17
2022-09-15T04:56:28.471Z,97.28
2022-09-15T04:56:49.054Z,97.38
2022-09-15T04:57:09.635Z,97.58
2022-09-15T04:57:30.214Z,97.79
2022-09-15T04:57:50.610Z,97.89
2022-09-15T04:58:11.189Z,97.99
2022-09-15T04:58:31.778Z,97.99
2022-09-15T04:58:52.428Z,97.99
2022-09-15T04:59:13.032Z,97.99
2022-09-15T04:59:33.429Z,97.99
2022-09-15T04:59:54.010Z,97.99
2022-09-15T05:00:14.610Z,97.99
2022-09-15T05:00:35.217Z,97.89
2022-09-15T05:00:55.866Z,97.89
2022-09-15T05:01:16.485Z,97.99
2022-09-15T05:01:37.109Z,97.99
2022-09-15T05:01:57.749Z,97.99
2022-09-15T05:02:18.460Z,97.99
2022-09-15T05:02:38.708Z,97.99
2022-09-15T05:02:59.292Z,98.20
2022-09-15T05:03:19.873Z,98.10
2022-09-15T05:03:40.456Z,98.10
2022-09-15T05:04:01.040Z,98.10
2022-09-15T05:04:21.622Z,98.10
2022-09-15T05:04:42.210Z,98.10
2022-09-15T05:05:02.788Z,98.10
2022-09-15T05:05:23.201Z,98.10
2022-09-15T05:05:43.777Z,98.20
2022-09-15T05:06:04.357Z,98.20
2022-09-15T05:06:24.947Z,98.20
2022-09-15T05:06:45.520Z,98.20
2022-09-15T05:07:06.100Z,98.20
2022-09-15T05:07:26.705Z,98.10
2022-09-15T05:07:47.266Z,97.99
2022-09-15T05:08:07.851Z,98.10
2022-09-15T05:08:28.431Z,98.10
2022-09-15T05:08:49.015Z,98.10
2022-09-15T05:09:10.612Z,97.99
2022-09-15T05:09:31.247Z,97.99
2022-09-15T05:09:51.831Z,97.99
2022-09-15T05:10:12.428Z,97.99
2022-09-15T05:10:33.009Z,98.10
2022-09-15T05:10:53.591Z,98.10
2022-09-15T05:11:14.173Z,98.20
2022-09-15T05:11:34.758Z,98.30
2022-09-15T05:11:55.333Z,98.20
2022-09-15T05:12:15.918Z,98.20
2022-09-15T05:12:36.315Z,98.20
2022-09-15T05:12:56.893Z,98.20
2022-09-15T05:13:17.478Z,98.20
2022-09-15T05:13:38.059Z,98.30
2022-09-15T05:13:58.642Z,98.30
2022-09-15T05:14:19.247Z,98.30
2022-09-15T05:14:39.834Z,98.30
2022-09-15T05:15:00.407Z,98.10
2022-09-15T05:15:21.001Z,97.99
2022-09-15T05:15:41.400Z,98.10
2022-09-15T05:16:02.048Z,97.99
2022-09-15T05:16:22.715Z,97.89
2022-09-15T05:16:43.350Z,97.89
2022-09-15T05:17:03.708Z,97.99
2022-09-15T05:17:26.794Z,97.99
2022-09-15T05:17:47.470Z,98.10
2022-09-15T05:18:07.867Z,98.10
2022-09-15T05:18:28.446Z,97.99
2022-09-15T05:18:49.029Z,97.99
2022-09-15T05:19:09.613Z,98.20
2022-09-15T05:19:30.195Z,98.20
2022-09-15T05:19:50.783Z,97.99
2022-09-15T05:20:11.377Z,98.10
2022-09-15T05:20:31.959Z,98.15
2022-09-15T05:20:52.545Z,98.10
2022-09-15T05:21:13.129Z,98.10
2022-09-15T05:21:33.724Z,98.10
2022-09-15T05:21:54.105Z,97.95
2022-09-15T05:22:14.686Z,97.95
2022-09-15T05:22:38.366Z,98.15
2022-09-15T05:22:55.673Z,98.25
2022-09-15T05:23:16.257Z,98.25
2022-09-15T05:23:36.839Z,98.25
2022-09-15T05:23:57.416Z,98.15
2022-09-15T05:24:18.006Z,98.05
2022-09-15T05:24:38.589Z,98.05
2022-09-15T05:24:59.170Z,98.05
2022-09-15T05:25:19.766Z,98.05
2022-09-15T05:25:40.349Z,97.95
2022-09-15T05:26:00.931Z,97.85
2022-09-15T05:26:21.510Z,97.85
2022-09-15T05:26:42.091Z,97.95
2022-09-15T05:27:02.675Z,97.74
2022-09-15T05:27:23.257Z,97.64
2022-09-15T05:27:43.840Z,97.54
2022-09-15T05:28:04.420Z,97.74
2022-09-15T05:28:25.003Z,97.95
2022-09-15T05:28:45.586Z,97.95
2022-09-15T05:29:06.169Z,97.95
2022-09-15T05:29:26.754Z,97.95
2022-09-15T05:29:47.335Z,97.95
2022-09-15T05:30:36.055Z,98.05
2022-09-15T05:30:38.904Z,98.05
2022-09-15T05:30:48.746Z,98.05
2022-09-15T05:31:09.383Z,98.05
2022-09-15T05:31:30.002Z,98.05
2022-09-15T05:31:50.715Z,98.15
2022-09-15T05:32:11.328Z,98.15
2022-09-15T05:32:31.895Z,98.25
2022-09-15T05:32:52.473Z,98.15
2022-09-15T05:33:13.089Z,98.15
2022-09-15T05:33:33.667Z,98.15
2022-09-15T05:33:54.248Z,98.15
2022-09-15T05:34:14.827Z,98.25
2022-09-15T05:34:35.223Z,98.25
2022-09-15T05:34:55.803Z,98.36
2022-09-15T05:35:16.401Z,98.46
2022-09-15T05:35:36.979Z,98.46
2022-09-15T05:35:57.560Z,98.25
2022-09-15T05:36:17.957Z,98.05
2022-09-15T05:36:38.541Z,97.85
2022-09-15T05:36:59.126Z,97.64
2022-09-15T05:37:19.949Z,97.54
2022-09-15T05:37:40.499Z,97.44
2022-09-15T05:38:01.087Z,97.44
2022-09-15T05:38:21.664Z,97.44
2022-09-15T05:38:42.249Z,97.54
2022-09-15T05:39:02.830Z,97.64
2022-09-15T05:39:23.422Z,97.85
2022-09-15T05:39:44.147Z,97.90
2022-09-15T05:40:08.383Z,97.90
2022-09-15T05:40:29.348Z,97.90
2022-09-15T05:40:49.902Z,98.00
2022-09-15T05:41:10.480Z,98.00
2022-09-15T05:41:31.071Z,98.00
2022-09-15T05:41:51.647Z,97.90
2022-09-15T05:42:12.228Z,97.90
2022-09-15T05:42:32.858Z,98.00
2022-09-15T05:42:53.410Z,98.00
2022-09-15T05:43:13.992Z,98.00
2022-09-15T05:43:34.572Z,97.80
2022-09-15T05:43:55.158Z,97.80
2022-09-15T05:44:15.739Z,98.00
2022-09-15T05:44:36.315Z,97.90
2022-09-15T05:44:56.708Z,97.70
2022-09-15T05:45:17.307Z,97.60
2022-09-15T05:45:37.897Z,97.60
2022-09-15T05:45:58.295Z,97.80
2022-09-15T05:46:18.926Z,97.90
2022-09-15T05:46:39.588Z,97.90
2022-09-15T05:47:00.286Z,98.00
2022-09-15T05:47:20.916Z,98.00
2022-09-15T05:47:41.475Z,98.11
2022-09-15T05:48:02.061Z,98.00
2022-09-15T05:48:22.637Z,97.90
2022-09-15T05:48:43.221Z,97.90
2022-09-15T05:49:03.795Z,97.75
2022-09-15T05:49:24.372Z,97.80
2022-09-15T05:49:44.951Z,97.75
2022-09-15T05:50:05.591Z,97.86
2022-09-15T05:50:26.125Z,97.86
2022-09-15T05:50:46.707Z,97.86
2022-09-15T05:51:07.286Z,97.86
2022-09-15T05:51:27.884Z,97.86
2022-09-15T05:51:48.457Z,97.86
2022-09-15T05:52:09.040Z,97.65
2022-09-15T05:52:29.623Z,97.55
2022-09-15T05:52:50.205Z,97.55
2022-09-15T05:53:10.600Z,97.65
2022-09-15T05:53:31.185Z,97.65
2022-09-15T05:53:51.962Z,97.75
2022-09-15T05:54:12.672Z,97.75
2022-09-15T05:54:33.255Z,97.65
2022-09-15T05:54:58.828Z,97.55
2022-09-15T05:55:14.261Z,97.50
2022-09-15T05:55:34.653Z,97.40
2022-09-15T05:55:55.233Z,97.20
2022-09-15T05:56:15.966Z,97.20
2022-09-15T05:56:36.559Z,97.20
2022-09-15T05:56:57.142Z,97.20
2022-09-15T05:57:17.724Z,97.09
2022-09-15T05:57:38.307Z,97.00
2022-09-15T05:57:58.887Z,97.09
2022-09-15T05:58:19.471Z,97.00
2022-09-15T05:58:40.054Z,96.79
2022-09-15T05:59:00.451Z,96.69
2022-09-15T05:59:21.036Z,96.59
2022-09-15T05:59:41.624Z,96.48
2022-09-15T06:00:02.213Z,96.44
2022-09-15T06:00:22.810Z,96.14
2022-09-15T06:00:43.390Z,95.83
2022-09-15T06:01:04.005Z,95.67
2022-09-15T06:01:24.703Z,95.83
2022-09-15T06:01:45.358Z,95.93
2022-09-15T06:02:06.057Z,95.93
2022-09-15T06:02:26.735Z,95.93
2022-09-15T06:02:47.403Z,95.83
2022-09-15T06:03:08.038Z,95.83
2022-09-15T06:03:30.966Z,95.83
2022-09-15T06:03:51.761Z,95.73
2022-09-15T06:04:12.342Z,95.52
2022-09-15T06:04:32.922Z,95.42
2022-09-15T06:04:53.505Z,95.12
2022-09-15T06:05:14.104Z,94.71
2022-09-15T06:05:34.687Z,94.81
2022-09-15T06:05:55.267Z,95.12
2022-09-15T06:06:15.852Z,94.81
2022-09-15T06:06:36.431Z,94.71
2022-09-15T06:06:57.012Z,94.91
2022-09-15T06:07:17.599Z,95.12
2022-09-15T06:07:38.193Z,95.01
2022-09-15T06:07:58.776Z,94.71
2022-09-15T06:08:19.358Z,94.81
2022-09-15T06:08:43.913Z,94.81
2022-09-15T06:09:05.218Z,94.71
2022-09-15T06:09:26.002Z,94.60
2022-09-15T06:09:46.580Z,94.50
2022-09-15T06:10:07.165Z,94.40
2022-09-15T06:10:27.949Z,94.40
2022-09-15T06:10:48.495Z,94.40
2022-09-15T06:11:09.096Z,94.40
2022-09-15T06:11:29.492Z,94.30
2022-09-15T06:11:50.082Z,94.40
2022-09-15T06:12:10.674Z,94.40
2022-09-15T06:12:31.303Z,94.40
2022-09-15T06:12:51.870Z,94.30
2022-09-15T06:13:12.276Z,94.30
2022-09-15T06:13:32.851Z,94.20
2022-09-15T06:13:53.433Z,93.99
2022-09-15T06:14:13.835Z,93.89
2022-09-15T06:14:34.423Z,93.99
2022-09-15T06:14:55.004Z,94.09
2022-09-15T06:15:15.602Z,94.20
2022-09-15T06:15:36.186Z,94.09
2022-09-15T06:15:56.806Z,93.89
2022-09-15T06:16:17.385Z,93.59
2022-09-15T06:16:38.058Z,93.89
2022-09-15T06:16:58.630Z,94.09
2022-09-15T06:17:19.214Z,94.20
2022-09-15T06:17:39.822Z,94.05
2022-09-15T06:18:00.381Z,93.99
2022-09-15T06:18:20.965Z,93.85
2022-09-15T06:18:41.614Z,93.85
2022-09-15T06:19:02.217Z,93.74
2022-09-15T06:19:22.793Z,93.44
2022-09-15T06:19:43.376Z,93.44
2022-09-15T06:20:03.962Z,93.33
2022-09-15T06:20:24.372Z,93.33
2022-09-15T06:20:44.958Z,93.54
2022-09-15T06:21:05.543Z,93.54
2022-09-15T06:21:26.125Z,93.44
2022-09-15T06:21:46.711Z,93.54
2022-09-15T06:22:07.293Z,93.50
2022-09-15T06:22:27.892Z,93.50
2022-09-15T06:22:48.457Z,93.40
2022-09-15T06:23:09.043Z,93.50
2022-09-15T06:23:29.623Z,93.50
2022-09-15T06:23:50.923Z,93.29
2022-09-15T06:24:10.414Z,93.80
2022-09-15T06:24:31.004Z,93.80
2022-09-15T06:24:51.583Z,93.60
2022-09-15T06:25:12.181Z,93.50
2022-09-15T06:25:32.767Z,93.29
2022-09-15T06:25:53.165Z,93.05